Time;durP1;ratioP1;P1;durP2;ratioP2;P2;SDS_P1;SDS_P2;PMS_P1;PMS_P2;Temp;Humidity;BMP_temperature;BMP_pressure;BME280_temperature;BME280_humidity;BME280_pressure;Samples;Min_cycle;Max_cycle;Signal;HPM_P1;HPM_P2
2021/07/24 00:01:03;;;;;;;10.27;6.57;;;20.50;99.90;;;;;;5068282;28;20912;-72
2021/07/24 00:03:30;;;;;;;7.10;6.40;;;20.50;99.90;;;;;;5068750;28;20234;-72
2021/07/24 00:05:57;;;;;;;7.70;6.90;;;20.50;99.90;;;;;;5068167;28;20250;-72
2021/07/24 00:08:23;;;;;;;7.10;6.47;;;20.40;99.90;;;;;;5068397;28;20259;-72
2021/07/24 00:10:50;;;;;;;9.77;6.67;;;20.40;99.90;;;;;;5068626;28;20192;-72
2021/07/24 00:13:17;;;;;;;7.17;6.30;;;20.40;99.90;;;;;;5068662;28;20227;-72
2021/07/24 00:15:45;;;;;;;8.23;6.60;;;20.40;99.90;;;;;;5068494;28;20231;-72
2021/07/24 00:18:12;;;;;;;6.80;6.20;;;20.40;99.90;;;;;;5068717;28;20550;-73
2021/07/24 00:20:39;;;;;;;7.60;6.00;;;20.40;99.90;;;;;;5068796;28;20204;-73
2021/07/24 00:23:08;;;;;;;7.67;6.87;;;20.30;99.90;;;;;;5067753;28;20269;-73
2021/07/24 00:25:36;;;;;;;7.10;6.40;;;20.30;99.90;;;;;;5068027;28;20214;-73
2021/07/24 00:28:02;;;;;;;7.10;6.40;;;20.30;99.90;;;;;;5068315;28;20288;-71
2021/07/24 00:30:29;;;;;;;7.30;6.53;;;20.30;99.90;;;;;;5068122;28;20231;-72
2021/07/24 00:32:57;;;;;;;6.60;5.97;;;20.20;99.90;;;;;;5068037;28;20263;-72
2021/07/24 00:35:23;;;;;;;7.67;6.53;;;20.10;99.90;;;;;;5068175;28;20239;-72
2021/07/24 00:37:51;;;;;;;7.40;6.53;;;20.10;99.90;;;;;;5068310;28;20248;-72
2021/07/24 00:40:22;;;;;;;8.13;6.80;;;20.10;99.90;;;;;;5069864;28;20211;-72
2021/07/24 00:42:51;;;;;;;6.97;6.23;;;20.00;99.90;;;;;;5072429;28;20241;-72
2021/07/24 00:45:19;;;;;;;8.47;6.07;;;20.10;99.90;;;;;;5072129;28;20218;-72
2021/07/24 00:47:50;;;;;;;9.70;6.43;;;20.10;99.90;;;;;;5072035;28;20234;-72
2021/07/24 00:50:18;;;;;;;6.93;6.27;;;20.00;99.90;;;;;;5072462;28;20188;-72
2021/07/24 00:52:45;;;;;;;7.10;6.50;;;20.00;99.90;;;;;;5072051;28;20229;-72
2021/07/24 00:55:14;;;;;;;6.70;6.20;;;20.00;99.90;;;;;;5072148;28;20207;-72
2021/07/24 00:57:41;;;;;;;8.37;7.03;;;20.00;99.90;;;;;;5071662;28;20674;-72
2021/07/24 01:00:09;;;;;;;10.30;7.13;;;19.90;99.90;;;;;;5071801;28;20211;-72
2021/07/24 01:02:36;;;;;;;8.67;6.80;;;19.90;99.90;;;;;;5071834;28;20293;-72
2021/07/24 01:05:06;;;;;;;7.20;6.60;;;19.90;99.90;;;;;;5071763;28;20264;-72
2021/07/24 01:07:39;;;;;;;7.47;6.77;;;19.90;99.90;;;;;;5071649;28;20584;-72
2021/07/24 01:10:06;;;;;;;7.60;6.73;;;19.90;99.90;;;;;;5071188;28;20227;-72
2021/07/24 01:12:34;;;;;;;8.80;6.93;;;19.80;99.90;;;;;;5071513;28;20203;-72
2021/07/24 01:15:02;;;;;;;8.00;6.93;;;19.90;99.90;;;;;;5070828;28;20634;-72
2021/07/24 01:17:29;;;;;;;7.33;6.70;;;19.90;99.90;;;;;;5071624;28;20230;-72
2021/07/24 01:19:56;;;;;;;7.27;6.67;;;19.80;99.90;;;;;;5071228;28;20210;-72
2021/07/24 01:22:27;;;;;;;7.83;6.90;;;19.80;99.90;;;;;;5071194;28;20256;-72
2021/07/24 01:24:53;;;;;;;10.33;7.10;;;19.80;99.90;;;;;;5071302;28;20235;-72
2021/07/24 01:27:20;;;;;;;7.27;6.63;;;19.70;99.90;;;;;;5071279;28;20657;-72
2021/07/24 01:29:46;;;;;;;8.23;7.20;;;19.70;99.90;;;;;;5071444;28;20227;-72
2021/07/24 01:32:13;;;;;;;7.20;6.50;;;19.70;99.90;;;;;;5071392;28;20250;-72
2021/07/24 01:34:40;;;;;;;7.40;6.70;;;19.60;99.90;;;;;;5070933;28;20645;-72
2021/07/24 01:37:06;;;;;;;7.10;6.60;;;19.60;99.90;;;;;;5071051;28;20227;-73
2021/07/24 01:39:34;;;;;;;9.73;7.03;;;19.70;99.90;;;;;;5071305;28;20203;-73
2021/07/24 01:42:01;;;;;;;8.20;7.00;;;19.60;99.90;;;;;;5071005;28;20249;-73
2021/07/24 01:44:28;;;;;;;8.63;7.73;;;19.60;99.90;;;;;;5070971;28;20260;-72
2021/07/24 01:46:54;;;;;;;8.00;7.23;;;19.60;99.90;;;;;;5070813;28;20254;-73
2021/07/24 01:55:01;;;;;;;7.57;6.87;;;19.60;99.90;;;;;;5070402;28;20260;-71
2021/07/24 01:57:29;;;;;;;7.53;6.73;;;19.60;99.90;;;;;;5071123;28;20211;-71
2021/07/24 02:00:00;;;;;;;7.47;6.83;;;19.50;99.90;;;;;;5070573;28;20265;-71
2021/07/24 02:02:29;;;;;;;8.00;7.30;;;19.50;99.90;;;;;;5071108;28;20199;-71
2021/07/24 02:04:58;;;;;;;8.80;8.00;;;19.50;99.90;;;;;;5070791;28;20266;-71
2021/07/24 02:07:27;;;;;;;8.23;7.53;;;19.50;99.90;;;;;;5070575;28;20259;-71
2021/07/24 02:09:55;;;;;;;8.73;7.20;;;19.50;99.90;;;;;;5070332;28;20236;-71
2021/07/24 02:12:22;;;;;;;8.50;7.13;;;19.50;99.90;;;;;;5070577;28;20474;-71
2021/07/24 02:14:49;;;;;;;8.63;7.80;;;19.40;99.90;;;;;;5070552;28;20292;-71
2021/07/24 02:17:16;;;;;;;8.07;7.17;;;19.40;99.90;;;;;;5070431;28;20699;-71
2021/07/24 02:19:44;;;;;;;7.80;7.00;;;19.40;99.90;;;;;;5070414;28;20249;-71
2021/07/24 02:22:10;;;;;;;9.50;7.50;;;19.40;99.90;;;;;;5070284;28;20619;-71
2021/07/24 02:24:37;;;;;;;7.93;7.10;;;19.30;99.90;;;;;;5070117;28;20249;-71
2021/07/24 02:27:09;;;;;;;7.77;7.00;;;19.30;99.90;;;;;;5070184;28;20239;-71
2021/07/24 02:29:36;;;;;;;7.73;7.03;;;19.30;99.90;;;;;;5070176;28;20224;-70
2021/07/24 02:32:03;;;;;;;7.33;6.70;;;19.30;99.90;;;;;;5069938;28;20253;-71
2021/07/24 02:34:30;;;;;;;8.53;7.50;;;19.30;99.90;;;;;;5069729;28;20761;-71
2021/07/24 02:36:59;;;;;;;8.20;7.47;;;19.30;99.90;;;;;;5069977;28;20586;-71
2021/07/24 02:39:26;;;;;;;8.77;7.90;;;19.30;99.90;;;;;;5069940;28;20661;-72
2021/07/24 02:41:52;;;;;;;7.97;7.27;;;19.20;99.90;;;;;;5069944;28;20238;-72
2021/07/24 02:44:20;;;;;;;8.70;7.90;;;19.20;99.90;;;;;;5069743;28;20763;-72
2021/07/24 02:46:47;;;;;;;8.17;7.37;;;19.20;99.90;;;;;;5069979;28;20257;-72
2021/07/24 02:49:14;;;;;;;8.57;7.77;;;19.20;99.90;;;;;;5069768;28;20261;-72
2021/07/24 02:51:41;;;;;;;8.80;7.80;;;19.20;99.90;;;;;;5070041;28;20397;-72
2021/07/24 02:54:08;;;;;;;8.33;7.57;;;19.20;99.90;;;;;;5069681;28;20263;-72
2021/07/24 02:56:34;;;;;;;8.30;7.40;;;19.10;99.90;;;;;;5069722;28;20231;-72
2021/07/24 02:59:01;;;;;;;7.60;6.90;;;19.10;99.90;;;;;;5069782;28;20203;-72
2021/07/24 03:01:29;;;;;;;8.50;7.70;;;19.10;99.90;;;;;;5069515;28;20219;-71
2021/07/24 03:03:55;;;;;;;9.40;7.73;;;19.10;99.90;;;;;;5068153;28;20242;-71
2021/07/24 03:06:22;;;;;;;9.27;8.33;;;19.10;99.90;;;;;;5069441;28;20204;-71
2021/07/24 03:08:48;;;;;;;8.90;8.07;;;19.10;99.90;;;;;;5069170;28;20335;-72
2021/07/24 03:11:15;;;;;;;8.80;7.80;;;19.10;99.90;;;;;;5069221;28;20208;-71
2021/07/24 03:13:42;;;;;;;10.57;8.97;;;19.10;99.90;;;;;;5069028;28;20212;-72
2021/07/24 03:16:08;;;;;;;9.40;8.30;;;19.10;99.90;;;;;;5069147;28;20204;-71
2021/07/24 03:18:36;;;;;;;9.73;8.77;;;19.10;99.90;;;;;;5069233;28;20203;-70
2021/07/24 03:21:03;;;;;;;9.47;8.47;;;19.10;99.90;;;;;;5068768;28;20723;-70
2021/07/24 03:23:29;;;;;;;9.50;8.40;;;19.10;99.90;;;;;;5069198;28;20207;-72
2021/07/24 03:25:56;;;;;;;9.57;8.07;;;19.10;99.90;;;;;;5068960;28;20238;-72
2021/07/24 03:28:22;;;;;;;8.17;7.47;;;19.10;99.90;;;;;;5069111;28;20211;-72
2021/07/24 03:30:50;;;;;;;8.43;7.67;;;19.10;99.90;;;;;;5068825;28;20283;-71
2021/07/24 03:33:16;;;;;;;8.93;8.07;;;19.10;99.90;;;;;;5068830;28;20329;-71
2021/07/24 03:35:44;;;;;;;8.27;7.57;;;19.10;99.90;;;;;;5068978;28;20281;-72
2021/07/24 03:38:11;;;;;;;9.00;8.03;;;19.10;99.90;;;;;;5068838;28;20296;-72
2021/07/24 03:40:38;;;;;;;9.43;8.60;;;19.10;99.90;;;;;;5068846;28;20242;-72
2021/07/24 03:43:05;;;;;;;8.77;7.80;;;19.10;99.90;;;;;;5068833;28;20204;-72
2021/07/24 03:45:33;;;;;;;9.57;8.67;;;19.10;99.90;;;;;;5068715;28;20257;-72
2021/07/24 03:47:59;;;;;;;10.77;8.70;;;19.10;99.90;;;;;;5068743;28;20211;-73
2021/07/24 03:50:26;;;;;;;9.60;8.43;;;19.00;99.90;;;;;;5068784;28;20239;-73
2021/07/24 03:52:54;;;;;;;10.37;8.63;;;19.00;99.90;;;;;;5068850;28;20207;-72
2021/07/24 03:55:20;;;;;;;9.00;8.20;;;19.10;99.90;;;;;;5068633;28;20231;-72
2021/07/24 03:57:49;;;;;;;10.23;8.90;;;19.10;99.90;;;;;;5068462;28;20234;-72
2021/07/24 04:00:16;;;;;;;9.73;8.83;;;19.10;99.90;;;;;;5068549;28;20207;-72
2021/07/24 04:02:43;;;;;;;10.47;8.70;;;19.10;99.90;;;;;;5068453;28;20203;-72
2021/07/24 04:05:11;;;;;;;11.40;9.57;;;19.10;99.90;;;;;;5068462;28;20364;-71
2021/07/24 04:07:39;;;;;;;9.50;8.60;;;19.10;99.90;;;;;;5068667;28;20259;-71
2021/07/24 04:10:09;;;;;;;11.20;9.27;;;19.10;99.90;;;;;;5068135;28;20285;-70
2021/07/24 04:12:36;;;;;;;9.00;8.20;;;19.20;99.90;;;;;;5068674;28;20248;-72
2021/07/24 04:15:04;;;;;;;10.33;9.33;;;19.10;99.90;;;;;;5068131;28;21131;-73
2021/07/24 04:17:31;;;;;;;11.27;9.13;;;19.10;99.90;;;;;;5068546;28;20284;-73
2021/07/24 04:19:58;;;;;;;10.63;9.63;;;19.20;99.90;;;;;;5068345;28;21049;-73
2021/07/24 04:22:24;;;;;;;10.37;9.13;;;19.20;99.90;;;;;;5068098;28;20669;-72
2021/07/24 04:24:51;;;;;;;11.00;9.90;;;19.20;99.90;;;;;;5068665;28;20256;-72
2021/07/24 04:27:19;;;;;;;10.83;9.73;;;19.20;99.90;;;;;;5068321;28;20239;-71
2021/07/24 04:29:46;;;;;;;11.30;10.03;;;19.20;99.90;;;;;;5068429;28;20268;-71
2021/07/24 04:32:12;;;;;;;9.93;9.03;;;19.20;99.90;;;;;;5068075;28;20231;-72
2021/07/24 04:34:39;;;;;;;10.33;9.30;;;19.30;99.90;;;;;;5068332;28;20482;-71
2021/07/24 04:37:06;;;;;;;11.23;10.13;;;19.30;99.90;;;;;;5068238;28;20300;-71
2021/07/24 04:39:32;;;;;;;12.20;10.80;;;19.30;99.90;;;;;;5068322;28;20345;-71
2021/07/24 04:41:59;;;;;;;13.20;11.67;;;19.30;99.90;;;;;;5068024;28;20239;-71
2021/07/24 04:44:27;;;;;;;12.03;10.73;;;19.30;99.90;;;;;;5068375;28;20268;-71
2021/07/24 04:46:53;;;;;;;14.07;10.47;;;19.30;99.90;;;;;;5068144;28;20241;-71
2021/07/24 04:49:20;;;;;;;13.57;11.30;;;19.40;99.90;;;;;;5068146;28;20212;-71
2021/07/24 04:51:46;;;;;;;11.40;9.77;;;19.40;99.90;;;;;;5068320;28;20203;-72
2021/07/24 04:54:13;;;;;;;12.53;11.17;;;19.40;99.90;;;;;;5067608;28;20865;-70
2021/07/24 04:56:40;;;;;;;11.50;10.37;;;19.30;99.90;;;;;;5067951;28;20239;-71
2021/07/24 04:59:07;;;;;;;11.97;10.83;;;19.30;99.90;;;;;;5067695;28;20674;-71
2021/07/24 05:01:36;;;;;;;12.20;10.63;;;19.30;99.90;;;;;;5068045;28;20238;-71
2021/07/24 05:04:03;;;;;;;12.87;11.37;;;19.30;99.90;;;;;;5068071;28;20273;-72
2021/07/24 05:06:31;;;;;;;16.10;12.30;;;19.20;99.90;;;;;;5068120;28;20580;-71
2021/07/24 05:08:58;;;;;;;22.80;20.33;;;19.30;99.90;;;;;;5067663;28;20271;-72
2021/07/24 05:11:25;;;;;;;16.70;14.57;;;19.30;99.90;;;;;;5068078;28;20235;-71
2021/07/24 05:13:51;;;;;;;16.53;13.03;;;19.30;99.90;;;;;;5068078;28;20242;-72
2021/07/24 05:16:18;;;;;;;17.03;13.93;;;19.30;99.90;;;;;;5067725;28;20236;-72
2021/07/24 05:18:46;;;;;;;17.10;14.77;;;19.40;99.90;;;;;;5067550;28;20597;-73
2021/07/24 05:21:16;;;;;;;15.30;12.57;;;19.50;99.90;;;;;;5067605;28;20231;-72
2021/07/24 05:23:43;;;;;;;13.43;11.70;;;19.50;99.90;;;;;;5067730;28;20265;-74
2021/07/24 05:26:13;;;;;;;13.23;11.87;;;19.60;99.90;;;;;;5067576;28;20464;-74
2021/07/24 05:28:39;;;;;;;12.67;11.37;;;19.70;99.90;;;;;;5071144;28;20249;-74
2021/07/24 05:31:06;;;;;;;16.13;12.60;;;19.80;99.90;;;;;;5071216;28;20264;-74
2021/07/24 05:33:32;;;;;;;15.93;11.30;;;19.80;99.90;;;;;;5071190;28;20285;-74
2021/07/24 05:36:00;;;;;;;13.23;11.37;;;19.90;99.90;;;;;;5071256;28;20285;-74
2021/07/24 05:38:28;;;;;;;12.43;11.23;;;20.00;99.90;;;;;;5071127;28;20208;-74
2021/07/24 05:40:55;;;;;;;15.70;10.73;;;20.10;99.90;;;;;;5066394;28;20306;-73
2021/07/24 05:43:21;;;;;;;16.53;11.60;;;20.10;99.90;;;;;;5067140;28;20294;-74
2021/07/24 05:45:48;;;;;;;11.37;10.27;;;20.20;99.90;;;;;;5067130;28;20239;-73
2021/07/24 05:48:15;;;;;;;14.57;12.03;;;20.20;99.90;;;;;;5066880;28;20231;-73
2021/07/24 05:50:41;;;;;;;12.37;11.13;;;20.30;99.90;;;;;;5066899;28;20207;-74
2021/07/24 05:53:09;;;;;;;13.47;11.53;;;20.30;99.90;;;;;;5046813;28;20208;-72
2021/07/24 05:55:37;;;;;;;12.40;10.57;;;20.40;99.90;;;;;;5056103;28;20324;-72
2021/07/24 05:58:04;;;;;;;13.47;11.90;;;20.40;99.90;;;;;;5066912;28;20257;-73
2021/07/24 06:00:31;;;;;;;12.83;11.53;;;20.40;99.90;;;;;;5067094;28;20689;-72
2021/07/24 06:02:57;;;;;;;12.67;11.07;;;20.40;99.90;;;;;;5066664;28;20250;-75
2021/07/24 06:05:24;;;;;;;13.80;11.70;;;20.50;99.90;;;;;;5066550;28;20661;-75
2021/07/24 06:07:51;;;;;;;12.10;10.90;;;20.50;99.90;;;;;;5066817;28;20236;-75
2021/07/24 06:10:19;;;;;;;11.83;10.63;;;20.50;99.90;;;;;;5066650;28;20278;-72
2021/07/24 06:12:47;;;;;;;13.47;12.03;;;20.60;99.90;;;;;;5065671;28;20301;-72
2021/07/24 06:15:14;;;;;;;12.87;11.57;;;20.60;99.90;;;;;;5067833;28;20219;-72
2021/07/24 06:17:40;;;;;;;13.07;11.73;;;20.60;99.90;;;;;;5076857;28;20288;-72
2021/07/24 06:20:07;;;;;;;13.47;11.50;;;20.60;99.90;;;;;;5075160;28;20239;-72
2021/07/24 06:22:34;;;;;;;16.53;11.50;;;20.70;99.90;;;;;;5069860;28;20559;-72
2021/07/24 06:25:01;;;;;;;12.40;10.70;;;20.70;99.90;;;;;;5070014;28;20685;-72
2021/07/24 06:27:29;;;;;;;12.00;10.87;;;20.70;99.90;;;;;;5066994;28;20250;-78
2021/07/24 06:29:55;;;;;;;12.70;11.43;;;20.80;99.90;;;;;;5070266;28;20321;-73
2021/07/24 06:32:22;;;;;;;15.70;11.60;;;20.80;99.90;;;;;;5069518;28;20781;-73
2021/07/24 06:34:48;;;;;;;13.30;11.23;;;20.80;99.90;;;;;;5070340;28;20203;-73
2021/07/24 06:37:15;;;;;;;11.80;10.47;;;20.80;99.90;;;;;;5069264;28;20253;-73
2021/07/24 06:39:42;;;;;;;11.93;10.83;;;20.90;99.90;;;;;;5068875;28;20231;-73
2021/07/24 06:42:09;;;;;;;12.70;11.50;;;20.90;99.90;;;;;;5068973;28;20264;-73
2021/07/24 06:44:37;;;;;;;15.90;11.43;;;20.90;99.90;;;;;;5068986;28;20242;-73
2021/07/24 06:47:03;;;;;;;12.13;10.73;;;21.00;99.90;;;;;;5068630;28;20293;-73
2021/07/24 06:49:30;;;;;;;12.27;10.93;;;21.00;99.90;;;;;;5068326;28;20730;-73
2021/07/24 06:51:56;;;;;;;12.43;10.67;;;21.00;99.90;;;;;;5068637;28;20606;-73
2021/07/24 06:54:24;;;;;;;12.60;11.30;;;21.10;99.90;;;;;;5068785;28;20231;-73
2021/07/24 06:56:50;;;;;;;12.40;11.13;;;21.10;99.90;;;;;;5069849;28;20285;-73
2021/07/24 06:59:17;;;;;;;13.02;11.68;;;21.10;99.90;;;;;;5069864;28;20230;-73
2021/07/24 07:01:45;;;;;;;12.70;11.40;;;21.10;99.90;;;;;;5069881;28;20234;-73
2021/07/24 07:04:11;;;;;;;11.97;10.83;;;21.20;99.90;;;;;;5069610;28;20208;-73
2021/07/24 07:06:40;;;;;;;14.57;11.13;;;21.20;99.90;;;;;;5069481;28;20207;-72
2021/07/24 07:09:07;;;;;;;12.27;10.93;;;21.30;99.90;;;;;;5069266;28;20278;-73
2021/07/24 07:11:33;;;;;;;13.00;11.60;;;21.30;99.90;;;;;;5069707;28;20634;-73
2021/07/24 07:14:00;;;;;;;12.02;10.80;;;21.30;99.90;;;;;;5069470;28;20207;-72
2021/07/24 07:16:27;;;;;;;12.43;11.23;;;21.40;99.90;;;;;;5069133;28;20288;-72
2021/07/24 07:18:55;;;;;;;14.07;11.73;;;21.40;99.90;;;;;;5069612;28;20261;-72
2021/07/24 07:21:21;;;;;;;13.30;11.17;;;21.40;99.90;;;;;;5069156;28;20443;-72
2021/07/24 07:23:48;;;;;;;12.02;10.82;;;21.50;99.90;;;;;;5069342;28;20211;-72
2021/07/24 07:26:22;;;;;;;12.77;11.43;;;21.60;99.90;;;;;;5068808;28;20693;-72
2021/07/24 07:28:48;;;;;;;13.23;11.38;;;21.60;99.90;;;;;;5069143;28;20227;-73
2021/07/24 07:31:15;;;;;;;12.80;11.40;;;21.70;99.90;;;;;;5068891;28;20235;-73
2021/07/24 07:33:41;;;;;;;13.23;11.95;;;21.70;99.90;;;;;;5069295;28;20288;-73
2021/07/24 07:36:09;;;;;;;12.15;10.90;;;21.80;99.90;;;;;;5068874;28;20234;-73
2021/07/24 07:38:36;;;;;;;22.73;11.53;;;21.80;99.90;;;;;;5068748;28;20223;-72
2021/07/24 07:41:02;;;;;;;13.45;12.05;;;21.90;99.90;;;;;;5068684;28;20234;-73
2021/07/24 07:43:29;;;;;;;13.05;11.88;;;21.90;99.90;;;;;;5068303;28;20940;-72
2021/07/24 07:45:56;;;;;;;13.02;11.63;;;22.00;99.90;;;;;;5068405;28;20727;-73
2021/07/24 07:48:23;;;;;;;15.18;11.90;;;22.00;99.90;;;;;;5068977;28;20303;-73
2021/07/24 07:50:50;;;;;;;13.40;11.30;;;22.00;99.90;;;;;;5068360;28;20199;-72
2021/07/24 07:53:18;;;;;;;13.63;11.23;;;22.20;99.90;;;;;;5068599;28;20570;-73
2021/07/24 07:55:45;;;;;;;13.32;11.95;;;22.10;99.90;;;;;;5068556;28;20758;-73
2021/07/24 07:58:14;;;;;;;12.98;11.35;;;22.20;99.90;;;;;;5068997;28;20207;-73
2021/07/24 08:00:40;;;;;;;12.48;11.18;;;22.20;99.90;;;;;;5068584;28;20673;-72
2021/07/24 08:03:07;;;;;;;13.93;11.10;;;22.20;99.90;;;;;;5068718;28;20638;-73
2021/07/24 08:05:34;;;;;;;12.18;10.95;;;22.20;99.90;;;;;;5068972;28;20208;-73
2021/07/24 08:08:00;;;;;;;13.00;11.60;;;22.30;99.90;;;;;;5068670;28;20231;-73
2021/07/24 08:10:28;;;;;;;12.88;11.55;;;22.30;99.90;;;;;;5067349;28;20243;-72
2021/07/24 08:12:55;;;;;;;13.50;11.20;;;22.30;99.90;;;;;;5068636;28;20235;-73
2021/07/24 08:15:21;;;;;;;12.90;11.30;;;22.30;99.90;;;;;;5068725;28;20347;-73
2021/07/24 08:17:48;;;;;;;12.90;11.63;;;22.40;99.90;;;;;;5068766;28;20634;-73
2021/07/24 08:20:15;;;;;;;13.40;11.20;;;22.40;99.90;;;;;;5068412;28;20234;-73
2021/07/24 08:22:41;;;;;;;13.00;10.00;;;22.50;99.90;;;;;;5068635;28;20265;-73
2021/07/24 08:25:09;;;;;;;12.85;11.45;;;22.50;99.90;;;;;;5068448;28;20239;-73
2021/07/24 08:27:37;;;;;;;13.15;11.82;;;22.60;99.90;;;;;;5068170;28;20340;-73
2021/07/24 08:30:04;;;;;;;14.27;11.63;;;22.60;99.90;;;;;;5068585;28;20235;-73
2021/07/24 08:32:31;;;;;;;13.25;11.93;;;22.70;99.90;;;;;;5067859;28;20780;-73
2021/07/24 08:34:57;;;;;;;12.48;11.05;;;22.70;99.90;;;;;;5068569;28;20412;-73
2021/07/24 08:37:24;;;;;;;13.82;11.65;;;22.80;99.90;;;;;;5068300;28;20231;-73
2021/07/24 08:39:51;;;;;;;13.98;11.50;;;22.80;99.90;;;;;;5068611;28;20596;-73
2021/07/24 08:42:29;;;;;;;12.65;11.43;;;22.90;99.90;;;;;;5068392;28;20215;-73
2021/07/24 08:44:57;;;;;;;13.20;11.95;;;22.90;99.90;;;;;;5068116;28;20636;-73
2021/07/24 08:47:24;;;;;;;13.15;11.30;;;23.00;99.90;;;;;;5068336;28;20234;-73
2021/07/24 08:49:51;;;;;;;12.45;11.25;;;23.00;99.90;;;;;;5068400;28;20239;-73
2021/07/24 08:52:19;;;;;;;13.88;11.73;;;23.10;99.90;;;;;;5068284;28;20229;-73
2021/07/24 08:54:46;;;;;;;11.18;10.13;;;23.10;99.90;;;;;;5068209;28;20208;-73
2021/07/24 08:57:17;;;;;;;13.88;11.25;;;23.20;99.90;;;;;;5068143;28;20235;-73
2021/07/24 08:59:46;;;;;;;11.30;10.20;;;23.20;99.90;;;;;;5068302;28;20636;-73
2021/07/24 09:02:14;;;;;;;13.32;11.55;;;23.30;99.90;;;;;;5071105;28;20256;-73
2021/07/24 09:04:46;;;;;;;14.00;11.30;;;23.30;99.90;;;;;;5072134;28;20203;-73
2021/07/24 09:07:12;;;;;;;12.63;11.38;;;23.40;99.90;;;;;;5071706;28;20343;-73
2021/07/24 09:09:42;;;;;;;12.57;11.38;;;23.50;99.90;;;;;;5071801;28;20240;-73
2021/07/24 09:12:10;;;;;;;13.18;11.93;;;23.60;99.90;;;;;;5072114;28;20207;-73
2021/07/24 09:14:37;;;;;;;13.77;11.75;;;23.70;99.90;;;;;;5071823;28;20215;-73
2021/07/24 09:17:04;;;;;;;14.18;11.68;;;23.70;99.90;;;;;;5071660;28;20270;-73
2021/07/24 09:19:32;;;;;;;12.70;11.43;;;23.90;99.90;;;;;;5071742;28;20234;-74
2021/07/24 09:21:59;;;;;;;14.20;11.10;;;23.90;99.90;;;;;;5071754;28;20269;-73
2021/07/24 09:24:26;;;;;;;16.30;14.48;;;24.00;99.90;;;;;;5071632;28;20267;-73
2021/07/24 09:26:53;;;;;;;12.95;11.63;;;24.10;99.90;;;;;;5071736;28;20207;-73
2021/07/24 09:29:22;;;;;;;12.07;10.95;;;24.30;99.90;;;;;;5071437;28;20227;-73
2021/07/24 09:31:49;;;;;;;13.32;12.13;;;24.30;99.90;;;;;;5071075;28;20757;-73
2021/07/24 09:34:16;;;;;;;13.50;12.10;;;24.30;99.90;;;;;;5071228;28;20234;-73
2021/07/24 09:36:46;;;;;;;12.73;11.43;;;24.30;99.90;;;;;;5071492;28;20235;-73
2021/07/24 09:39:14;;;;;;;24.35;13.77;;;24.40;99.90;;;;;;5071379;28;20211;-73
2021/07/24 09:41:42;;;;;;;13.10;11.80;;;24.60;99.90;;;;;;5071358;28;20213;-73
2021/07/24 09:44:08;;;;;;;12.70;11.35;;;24.60;99.90;;;;;;5071361;28;20237;-73
2021/07/24 09:46:35;;;;;;;13.13;11.77;;;24.70;99.90;;;;;;5070981;28;20246;-73
2021/07/24 09:49:14;;;;;;;13.32;11.80;;;24.80;99.90;;;;;;5071333;28;20199;-73
2021/07/24 09:51:41;;;;;;;12.75;11.48;;;24.80;99.90;;;;;;5071235;28;20203;-73
2021/07/24 09:54:24;;;;;;;13.75;12.02;;;25.00;99.90;;;;;;5071276;28;20265;-73
2021/07/24 09:56:51;;;;;;;13.45;11.38;;;25.10;99.90;;;;;;5071036;28;20300;-73
2021/07/24 09:59:19;;;;;;;15.13;11.77;;;25.10;99.80;;;;;;5070861;28;20208;-73
2021/07/24 10:01:53;;;;;;;12.32;11.02;;;25.10;99.70;;;;;;5070794;28;20628;-73
2021/07/24 10:04:26;;;;;;;12.68;11.35;;;25.20;99.60;;;;;;5070854;28;20281;-73
2021/07/24 10:06:56;;;;;;;14.00;10.73;;;25.30;98.90;;;;;;5070960;28;20277;-73
2021/07/24 10:09:28;;;;;;;13.35;11.38;;;25.40;98.80;;;;;;5070666;28;20649;-73
2021/07/24 10:11:55;;;;;;;14.93;11.98;;;25.60;99.50;;;;;;5070632;28;20220;-73
2021/07/24 10:14:23;;;;;;;12.32;11.02;;;25.60;99.30;;;;;;5070215;28;20209;-73
2021/07/24 10:16:51;;;;;;;13.48;12.07;;;25.80;98.70;;;;;;5070495;28;20236;-73
2021/07/24 10:19:21;;;;;;;13.70;11.85;;;25.80;98.30;;;;;;5070281;28;20208;-73
2021/07/24 10:21:49;;;;;;;14.50;12.10;;;25.80;98.70;;;;;;5070661;28;20308;-73
2021/07/24 10:24:16;;;;;;;13.73;11.55;;;25.80;98.40;;;;;;5070780;28;20242;-73
2021/07/24 10:26:49;;;;;;;12.35;11.25;;;25.90;98.70;;;;;;5070652;28;20211;-73
2021/07/24 10:29:19;;;;;;;11.23;10.30;;;25.80;97.90;;;;;;5070047;28;20250;-73
2021/07/24 10:31:52;;;;;;;14.85;10.93;;;25.80;97.60;;;;;;5070028;28;20806;-73
2021/07/24 10:34:24;;;;;;;13.25;11.75;;;25.80;97.30;;;;;;5070388;28;20196;-73
2021/07/24 10:36:50;;;;;;;12.70;11.35;;;25.90;97.60;;;;;;5070564;28;20292;-73
2021/07/24 10:39:22;;;;;;;11.95;10.75;;;26.00;98.10;;;;;;5070313;28;20692;-73
2021/07/24 10:41:50;;;;;;;11.70;10.52;;;26.00;97.00;;;;;;5070246;28;20488;-73
2021/07/24 10:44:33;;;;;;;12.35;11.05;;;26.20;97.40;;;;;;5070253;28;20260;-73
2021/07/24 10:47:15;;;;;;;12.02;10.82;;;26.30;96.90;;;;;;5069943;28;20230;-73
2021/07/24 10:49:59;;;;;;;12.95;11.52;;;26.40;98.00;;;;;;5070244;28;20199;-73
2021/07/24 10:52:26;;;;;;;11.93;10.88;;;26.60;98.00;;;;;;5070078;28;20199;-73
2021/07/24 10:55:15;;;;;;;12.25;11.05;;;26.70;97.90;;;;;;5069814;28;20630;-73
2021/07/24 10:58:08;;;;;;;11.10;10.00;;;26.70;97.00;;;;;;5069986;28;20224;-73
2021/07/24 11:00:51;;;;;;;10.68;9.77;;;26.70;96.70;;;;;;5069614;28;20427;-73
2021/07/24 11:03:43;;;;;;;12.10;10.82;;;26.90;97.60;;;;;;5069405;28;20565;-73
2021/07/24 11:06:27;;;;;;;12.05;10.88;;;27.20;97.10;;;;;;5069771;28;20228;-73
2021/07/24 11:09:02;;;;;;;12.23;11.13;;;27.40;96.50;;;;;;5069204;28;20243;-73
2021/07/24 11:11:40;;;;;;;14.15;11.00;;;27.60;95.90;;;;;;5069329;28;20649;-73
2021/07/24 11:14:08;;;;;;;13.63;10.93;;;27.70;96.00;;;;;;5069673;28;20203;-74
2021/07/24 11:17:14;;;;;;;11.93;10.82;;;27.80;96.10;;;;;;5069298;28;20223;-73
2021/07/24 11:19:43;;;;;;;13.10;10.55;;;27.90;95.90;;;;;;5069339;28;20207;-74
2021/07/24 11:22:11;;;;;;;12.07;10.63;;;28.00;95.30;;;;;;5068999;28;20979;-73
2021/07/24 11:24:38;;;;;;;11.10;10.10;;;28.00;94.60;;;;;;5068528;28;20238;-73
2021/07/24 11:27:05;;;;;;;12.45;10.48;;;28.20;94.80;;;;;;5069251;28;20215;-73
2021/07/24 11:29:33;;;;;;;11.68;10.50;;;28.30;93.40;;;;;;5068759;28;20262;-73
2021/07/24 11:32:02;;;;;;;11.13;10.15;;;28.30;93.80;;;;;;5069189;28;20263;-73
2021/07/24 11:34:31;;;;;;;11.68;10.48;;;28.40;94.30;;;;;;5068932;28;20266;-73
2021/07/24 11:36:58;;;;;;;11.85;10.65;;;28.50;94.40;;;;;;5068931;28;20238;-73
2021/07/24 11:39:26;;;;;;;12.32;11.23;;;28.60;94.60;;;;;;5068879;28;20203;-73
2021/07/24 11:41:53;;;;;;;11.63;10.25;;;28.70;94.60;;;;;;5069223;28;20243;-73
2021/07/24 11:44:27;;;;;;;12.13;10.90;;;28.70;93.10;;;;;;5068960;28;20241;-73
2021/07/24 11:47:00;;;;;;;11.93;10.70;;;28.70;93.20;;;;;;5068997;28;20257;-73
2021/07/24 11:49:27;;;;;;;11.65;9.52;;;28.60;93.10;;;;;;5068487;28;20946;-73
2021/07/24 11:51:54;;;;;;;11.80;10.63;;;28.60;93.40;;;;;;5068713;28;20797;-73
2021/07/24 11:54:31;;;;;;;12.57;10.52;;;28.70;94.10;;;;;;5069081;28;20207;-73
2021/07/24 11:56:58;;;;;;;11.45;10.45;;;28.80;93.90;;;;;;5068606;28;20582;-73
2021/07/24 11:59:26;;;;;;;11.43;10.02;;;29.00;93.80;;;;;;5068972;28;20211;-73
2021/07/24 12:01:52;;;;;;;13.13;10.05;;;29.20;92.30;;;;;;5068902;28;20207;-73
2021/07/24 12:04:20;;;;;;;11.35;9.65;;;29.40;92.80;;;;;;5068783;28;20235;-73
2021/07/24 12:06:56;;;;;;;10.80;9.90;;;29.50;92.80;;;;;;5068883;28;20231;-73
2021/07/24 12:09:23;;;;;;;12.50;11.23;;;29.60;92.80;;;;;;5068516;28;20234;-73
2021/07/24 12:11:52;;;;;;;11.35;10.23;;;29.80;92.30;;;;;;5068661;28;20234;-73
2021/07/24 12:14:22;;;;;;;11.07;9.77;;;29.90;91.80;;;;;;5068514;28;20203;-73
2021/07/24 12:17:02;;;;;;;12.10;9.75;;;30.00;92.60;;;;;;5068395;28;20235;-73
2021/07/24 12:19:35;;;;;;;10.95;9.85;;;30.30;92.40;;;;;;5068575;28;20234;-73
2021/07/24 12:22:12;;;;;;;11.20;10.30;;;30.40;92.70;;;;;;5068567;28;20230;-73
2021/07/24 12:24:39;;;;;;;11.82;10.43;;;30.50;92.00;;;;;;5068149;28;20668;-73
2021/07/24 12:27:08;;;;;;;12.27;10.43;;;30.60;92.10;;;;;;5068623;28;20234;-73
2021/07/24 12:29:50;;;;;;;10.43;9.45;;;30.60;90.60;;;;;;5068280;28;20285;-73
2021/07/24 12:32:18;;;;;;;10.93;9.82;;;30.60;90.00;;;;;;5068252;28;20223;-73
2021/07/24 12:34:47;;;;;;;10.70;9.70;;;30.70;89.60;;;;;;5068347;28;20207;-73
2021/07/24 12:37:27;;;;;;;13.38;10.50;;;30.70;90.30;;;;;;5071451;28;20316;-73
2021/07/24 12:39:54;;;;;;;10.05;8.95;;;30.80;89.80;;;;;;5072607;28;20272;-73
2021/07/24 12:42:30;;;;;;;11.95;9.75;;;30.90;90.00;;;;;;5072300;28;20243;-73
2021/07/24 12:44:58;;;;;;;10.90;9.82;;;30.90;90.20;;;;;;5072343;28;20191;-73